Airfield :







YOU CAN JOIN US ON...

 
LOGIN :

Register | Disclaimer

   EN    FR    IT 

 









Legend :    VFR   Marginal VFR   IFR   Intensive IFR   Very Intensive IFR
Visi :
Ceiling :
>= 8 km
>= 3000ft
5 to 8 km
1000 to 3000 ft
1500m to 5 km
500 to 1000 ft
800 to 1500m
200 to 500 ft
< 800m
< 200 ft
Symbols :   Thunderstorms  Fog  Heavy snow  Heavy precipitations  Wind > 20 kt






- Airport Elevation : 1188 ft


KCDA - Caledonia County

CURRENT METAR :
  • 021155Z AUTO 14009KT 10SM OVC048 00/M04 A2970 RMK AO2 T00031039 10020 20001

EXPIRED METARs :
  • 021135Z AUTO 15006KT 10SM OVC050 00/M04 A2971 RMK AO2 T00031038
  • 021115Z AUTO 15007G14KT 130V190 10SM OVC060 00/M03 A2971 RMK AO2 T00031033
  • 021055Z AUTO 15007KT 10SM SCT040 OVC060 00/M03 A2971 RMK AO2 T00031026
  • 021035Z AUTO 16005KT 10SM OVC050 00/M02 A2970 RMK AO2 T00031022
  • 021015Z AUTO 16007KT 10SM BKN048 OVC055 01/M02 A2969 RMK AO2 T00051016
  • 020955Z AUTO 15009KT 10SM -SN SCT027 SCT033 OVC046 00/M01 A2969 RMK AO2 T00031009
  • 020935Z AUTO 18003KT 10SM -DZ BKN029 BKN035 OVC041 00/M01 A2969 RMK AO2 T00031006
  • 020915Z AUTO 18004KT 10SM BKN031 OVC040 00/00 A2968 RMK AO2 T00031005
  • 020855Z AUTO 13004KT 10SM SCT034 OVC040 00/00 A2967 RMK AO2 T00031005

TAF N/A
KZBW FIR / North America



MET'MAP, your aeronautical weather chart ! - Copyright ORBIFLY December 2007 - Disclaimer

ORBIFLY MET'MAP TEAM :

Programming & Development : Alexandra Zaïnal
Concept & original design : Baudouin d'Aumeries
Assistance for programming : Marc-Olivier Méhu
Technical & hardware support : Manuel Goepfert

Contact : metmap@orbifly.com




SOURCES & CREDITS :

   NOAA